sensor_id;sensor_type;location;lat;lon;timestamp;P1;durP1;ratioP1;P2;durP2;ratioP2
4089;SDS011;2059;48.538;12.146;2023-02-28T00:02:44;4.90;;;4.60;;
4089;SDS011;2059;48.538;12.146;2023-02-28T00:07:46;5.77;;;5.37;;
4089;SDS011;2059;48.538;12.146;2023-02-28T00:12:49;5.83;;;5.43;;
4089;SDS011;2059;48.538;12.146;2023-02-28T00:17:52;6.90;;;5.60;;
4089;SDS011;2059;48.538;12.146;2023-02-28T00:22:54;5.37;;;4.97;;
4089;SDS011;2059;48.538;12.146;2023-02-28T00:27:56;5.60;;;5.20;;
4089;SDS011;2059;48.538;12.146;2023-02-28T00:32:59;5.80;;;5.40;;
4089;SDS011;2059;48.538;12.146;2023-02-28T00:38:01;5.40;;;4.90;;
4089;SDS011;2059;48.538;12.146;2023-02-28T00:43:03;6.00;;;5.60;;
4089;SDS011;2059;48.538;12.146;2023-02-28T00:48:06;5.53;;;5.10;;
4089;SDS011;2059;48.538;12.146;2023-02-28T00:53:08;5.60;;;5.10;;
4089;SDS011;2059;48.538;12.146;2023-02-28T00:58:10;5.90;;;5.40;;
4089;SDS011;2059;48.538;12.146;2023-02-28T01:03:13;5.60;;;5.20;;
4089;SDS011;2059;48.538;12.146;2023-02-28T01:08:15;6.00;;;5.47;;
4089;SDS011;2059;48.538;12.146;2023-02-28T01:13:17;7.40;;;5.60;;
4089;SDS011;2059;48.538;12.146;2023-02-28T01:18:21;5.70;;;5.30;;
4089;SDS011;2059;48.538;12.146;2023-02-28T01:23:23;6.43;;;4.53;;
4089;SDS011;2059;48.538;12.146;2023-02-28T01:28:25;5.70;;;5.10;;
4089;SDS011;2059;48.538;12.146;2023-02-28T01:33:28;4.70;;;4.30;;
4089;SDS011;2059;48.538;12.146;2023-02-28T01:38:30;5.03;;;4.63;;
4089;SDS011;2059;48.538;12.146;2023-02-28T01:43:49;5.70;;;5.20;;
4089;SDS011;2059;48.538;12.146;2023-02-28T01:48:57;5.50;;;5.00;;
4089;SDS011;2059;48.538;12.146;2023-02-28T01:54:03;5.40;;;5.00;;
4089;SDS011;2059;48.538;12.146;2023-02-28T01:59:14;6.30;;;5.50;;
4089;SDS011;2059;48.538;12.146;2023-02-28T02:04:24;5.70;;;5.20;;
4089;SDS011;2059;48.538;12.146;2023-02-28T02:09:33;6.90;;;5.37;;
4089;SDS011;2059;48.538;12.146;2023-02-28T02:14:40;6.03;;;5.10;;
4089;SDS011;2059;48.538;12.146;2023-02-28T02:25:28;6.00;;;5.40;;
4089;SDS011;2059;48.538;12.146;2023-02-28T02:30:46;5.10;;;4.60;;
4089;SDS011;2059;48.538;12.146;2023-02-28T02:36:07;5.63;;;5.13;;
4089;SDS011;2059;48.538;12.146;2023-02-28T02:41:15;5.97;;;5.47;;
4089;SDS011;2059;48.538;12.146;2023-02-28T02:46:21;9.40;;;6.00;;
4089;SDS011;2059;48.538;12.146;2023-02-28T02:51:27;8.00;;;6.53;;
4089;SDS011;2059;48.538;12.146;2023-02-28T02:56:31;6.63;;;5.93;;
4089;SDS011;2059;48.538;12.146;2023-02-28T03:01:35;6.50;;;6.00;;
4089;SDS011;2059;48.538;12.146;2023-02-28T03:06:39;6.20;;;5.63;;
4089;SDS011;2059;48.538;12.146;2023-02-28T03:11:41;6.30;;;5.70;;
4089;SDS011;2059;48.538;12.146;2023-02-28T03:16:49;6.63;;;6.03;;
4089;SDS011;2059;48.538;12.146;2023-02-28T03:22:06;7.00;;;6.30;;
4089;SDS011;2059;48.538;12.146;2023-02-28T03:27:30;8.30;;;7.50;;
4089;SDS011;2059;48.538;12.146;2023-02-28T03:32:38;9.60;;;8.00;;
4089;SDS011;2059;48.538;12.146;2023-02-28T03:37:49;8.00;;;7.20;;
4089;SDS011;2059;48.538;12.146;2023-02-28T03:42:55;8.37;;;7.57;;
4089;SDS011;2059;48.538;12.146;2023-02-28T03:48:01;7.80;;;7.07;;
4089;SDS011;2059;48.538;12.146;2023-02-28T03:53:08;7.80;;;7.00;;
4089;SDS011;2059;48.538;12.146;2023-02-28T03:58:15;7.67;;;6.97;;
4089;SDS011;2059;48.538;12.146;2023-02-28T04:03:24;6.77;;;6.00;;
4089;SDS011;2059;48.538;12.146;2023-02-28T04:08:28;7.53;;;6.80;;
4089;SDS011;2059;48.538;12.146;2023-02-28T04:13:30;7.83;;;7.03;;
4089;SDS011;2059;48.538;12.146;2023-02-28T04:18:31;7.20;;;6.50;;
4089;SDS011;2059;48.538;12.146;2023-02-28T04:23:34;7.30;;;6.60;;
4089;SDS011;2059;48.538;12.146;2023-02-28T04:28:36;8.13;;;7.30;;
4089;SDS011;2059;48.538;12.146;2023-02-28T04:33:38;7.53;;;6.50;;
4089;SDS011;2059;48.538;12.146;2023-02-28T04:38:41;7.10;;;6.43;;
4089;SDS011;2059;48.538;12.146;2023-02-28T04:43:43;8.53;;;7.63;;
4089;SDS011;2059;48.538;12.146;2023-02-28T04:48:45;9.53;;;8.00;;
4089;SDS011;2059;48.538;12.146;2023-02-28T04:53:48;9.87;;;7.60;;
4089;SDS011;2059;48.538;12.146;2023-02-28T04:58:50;9.10;;;7.30;;
4089;SDS011;2059;48.538;12.146;2023-02-28T05:03:53;10.33;;;8.17;;
4089;SDS011;2059;48.538;12.146;2023-02-28T05:08:58;11.43;;;9.40;;
4089;SDS011;2059;48.538;12.146;2023-02-28T05:13:59;9.70;;;8.70;;
4089;SDS011;2059;48.538;12.146;2023-02-28T05:19:02;9.40;;;8.37;;
4089;SDS011;2059;48.538;12.146;2023-02-28T05:24:06;9.83;;;8.77;;
4089;SDS011;2059;48.538;12.146;2023-02-28T05:29:10;9.00;;;7.97;;
4089;SDS011;2059;48.538;12.146;2023-02-28T05:34:12;13.80;;;9.80;;
4089;SDS011;2059;48.538;12.146;2023-02-28T05:39:16;10.37;;;8.27;;
4089;SDS011;2059;48.538;12.146;2023-02-28T05:44:18;14.77;;;9.53;;
4089;SDS011;2059;48.538;12.146;2023-02-28T05:49:20;12.70;;;9.77;;
4089;SDS011;2059;48.538;12.146;2023-02-28T05:54:23;10.13;;;9.03;;
4089;SDS011;2059;48.538;12.146;2023-02-28T05:59:25;13.23;;;8.97;;
4089;SDS011;2059;48.538;12.146;2023-02-28T06:04:27;10.60;;;8.67;;
4089;SDS011;2059;48.538;12.146;2023-02-28T06:09:30;10.13;;;8.93;;
4089;SDS011;2059;48.538;12.146;2023-02-28T06:14:32;11.40;;;10.17;;
4089;SDS011;2059;48.538;12.146;2023-02-28T06:19:36;14.00;;;11.50;;
4089;SDS011;2059;48.538;12.146;2023-02-28T06:24:41;14.33;;;11.47;;
4089;SDS011;2059;48.538;12.146;2023-02-28T06:29:43;12.63;;;9.50;;
4089;SDS011;2059;48.538;12.146;2023-02-28T06:34:45;12.17;;;9.83;;
4089;SDS011;2059;48.538;12.146;2023-02-28T06:39:48;14.77;;;9.70;;
4089;SDS011;2059;48.538;12.146;2023-02-28T06:44:50;11.90;;;10.47;;
4089;SDS011;2059;48.538;12.146;2023-02-28T06:49:51;15.10;;;10.30;;
4089;SDS011;2059;48.538;12.146;2023-02-28T06:54:55;12.90;;;9.67;;
4089;SDS011;2059;48.538;12.146;2023-02-28T07:00:02;16.17;;;9.37;;
4089;SDS011;2059;48.538;12.146;2023-02-28T07:05:07;12.40;;;9.47;;
4089;SDS011;2059;48.538;12.146;2023-02-28T07:10:11;11.93;;;9.53;;
4089;SDS011;2059;48.538;12.146;2023-02-28T07:15:14;12.87;;;10.00;;
4089;SDS011;2059;48.538;12.146;2023-02-28T07:20:16;11.93;;;9.93;;
4089;SDS011;2059;48.538;12.146;2023-02-28T07:25:20;11.17;;;9.00;;
4089;SDS011;2059;48.538;12.146;2023-02-28T07:30:22;10.97;;;9.50;;
4089;SDS011;2059;48.538;12.146;2023-02-28T07:35:24;10.90;;;8.90;;
4089;SDS011;2059;48.538;12.146;2023-02-28T07:40:27;10.90;;;9.20;;
4089;SDS011;2059;48.538;12.146;2023-02-28T07:45:29;11.20;;;9.33;;
4089;SDS011;2059;48.538;12.146;2023-02-28T07:50:31;11.43;;;9.37;;
4089;SDS011;2059;48.538;12.146;2023-02-28T07:55:35;10.70;;;8.60;;
4089;SDS011;2059;48.538;12.146;2023-02-28T08:00:37;10.10;;;8.77;;
4089;SDS011;2059;48.538;12.146;2023-02-28T08:05:40;10.47;;;9.13;;
4089;SDS011;2059;48.538;12.146;2023-02-28T08:10:43;9.13;;;8.23;;
4089;SDS011;2059;48.538;12.146;2023-02-28T08:15:45;14.20;;;8.40;;
4089;SDS011;2059;48.538;12.146;2023-02-28T08:20:47;11.07;;;9.80;;
4089;SDS011;2059;48.538;12.146;2023-02-28T08:25:54;10.60;;;8.30;;
4089;SDS011;2059;48.538;12.146;2023-02-28T08:30:55;10.50;;;9.33;;
4089;SDS011;2059;48.538;12.146;2023-02-28T08:35:57;11.30;;;8.10;;
4089;SDS011;2059;48.538;12.146;2023-02-28T08:41:02;10.63;;;7.90;;
4089;SDS011;2059;48.538;12.146;2023-02-28T08:46:07;7.80;;;7.00;;
4089;SDS011;2059;48.538;12.146;2023-02-28T08:51:10;10.07;;;8.53;;
4089;SDS011;2059;48.538;12.146;2023-02-28T08:56:15;8.83;;;7.93;;
4089;SDS011;2059;48.538;12.146;2023-02-28T09:01:18;9.90;;;8.50;;
4089;SDS011;2059;48.538;12.146;2023-02-28T09:06:22;9.00;;;7.93;;
4089;SDS011;2059;48.538;12.146;2023-02-28T09:11:26;12.30;;;9.50;;
4089;SDS011;2059;48.538;12.146;2023-02-28T09:16:29;9.90;;;8.90;;
4089;SDS011;2059;48.538;12.146;2023-02-28T09:21:31;9.40;;;8.50;;
4089;SDS011;2059;48.538;12.146;2023-02-28T09:26:35;10.33;;;8.70;;
4089;SDS011;2059;48.538;12.146;2023-02-28T09:31:38;10.33;;;9.20;;
4089;SDS011;2059;48.538;12.146;2023-02-28T09:36:40;8.93;;;8.03;;
4089;SDS011;2059;48.538;12.146;2023-02-28T09:41:44;9.80;;;8.23;;
4089;SDS011;2059;48.538;12.146;2023-02-28T09:46:51;9.63;;;8.50;;
4089;SDS011;2059;48.538;12.146;2023-02-28T09:51:58;10.33;;;8.63;;
4089;SDS011;2059;48.538;12.146;2023-02-28T09:57:07;11.17;;;9.97;;
4089;SDS011;2059;48.538;12.146;2023-02-28T10:02:19;12.23;;;10.17;;
4089;SDS011;2059;48.538;12.146;2023-02-28T10:07:44;11.37;;;9.60;;
4089;SDS011;2059;48.538;12.146;2023-02-28T10:13:01;10.67;;;9.57;;
4089;SDS011;2059;48.538;12.146;2023-02-28T10:18:09;11.80;;;8.70;;
4089;SDS011;2059;48.538;12.146;2023-02-28T10:23:17;12.50;;;8.87;;
4089;SDS011;2059;48.538;12.146;2023-02-28T10:28:24;9.60;;;8.60;;
4089;SDS011;2059;48.538;12.146;2023-02-28T10:33:28;9.63;;;8.63;;
4089;SDS011;2059;48.538;12.146;2023-02-28T10:38:32;10.50;;;9.13;;
4089;SDS011;2059;48.538;12.146;2023-02-28T10:43:36;11.00;;;9.30;;
4089;SDS011;2059;48.538;12.146;2023-02-28T10:48:39;16.00;;;9.70;;
4089;SDS011;2059;48.538;12.146;2023-02-28T10:53:47;9.97;;;8.97;;
4089;SDS011;2059;48.538;12.146;2023-02-28T10:58:53;9.93;;;8.90;;
4089;SDS011;2059;48.538;12.146;2023-02-28T11:03:56;9.60;;;8.70;;
4089;SDS011;2059;48.538;12.146;2023-02-28T11:08:59;10.83;;;9.63;;
4089;SDS011;2059;48.538;12.146;2023-02-28T11:14:05;15.90;;;9.80;;
4089;SDS011;2059;48.538;12.146;2023-02-28T11:19:17;10.60;;;9.50;;
4089;SDS011;2059;48.538;12.146;2023-02-28T11:24:23;11.43;;;9.73;;
4089;SDS011;2059;48.538;12.146;2023-02-28T11:29:30;11.20;;;9.83;;
4089;SDS011;2059;48.538;12.146;2023-02-28T11:34:33;11.83;;;9.57;;
4089;SDS011;2059;48.538;12.146;2023-02-28T11:39:36;11.53;;;10.47;;
4089;SDS011;2059;48.538;12.146;2023-02-28T11:50:07;11.53;;;9.63;;
4089;SDS011;2059;48.538;12.146;2023-02-28T11:55:32;10.10;;;9.10;;
4089;SDS011;2059;48.538;12.146;2023-02-28T12:00:42;10.03;;;9.03;;
4089;SDS011;2059;48.538;12.146;2023-02-28T12:05:57;11.13;;;9.20;;
4089;SDS011;2059;48.538;12.146;2023-02-28T12:11:09;10.17;;;9.17;;
4089;SDS011;2059;48.538;12.146;2023-02-28T12:16:24;11.17;;;10.07;;
4089;SDS011;2059;48.538;12.146;2023-02-28T12:21:38;13.63;;;10.97;;
4089;SDS011;2059;48.538;12.146;2023-02-28T12:26:48;10.50;;;9.43;;
4089;SDS011;2059;48.538;12.146;2023-02-28T12:31:54;11.40;;;10.13;;
4089;SDS011;2059;48.538;12.146;2023-02-28T12:37:01;12.60;;;10.23;;
4089;SDS011;2059;48.538;12.146;2023-02-28T12:42:10;11.23;;;9.50;;
4089;SDS011;2059;48.538;12.146;2023-02-28T12:47:17;10.93;;;9.23;;
4089;SDS011;2059;48.538;12.146;2023-02-28T12:52:20;10.13;;;9.13;;
4089;SDS011;2059;48.538;12.146;2023-02-28T12:57:27;10.47;;;9.37;;
4089;SDS011;2059;48.538;12.146;2023-02-28T13:02:44;13.20;;;10.17;;
4089;SDS011;2059;48.538;12.146;2023-02-28T13:08:18;13.20;;;10.73;;
4089;SDS011;2059;48.538;12.146;2023-02-28T13:13:42;11.60;;;10.40;;
4089;SDS011;2059;48.538;12.146;2023-02-28T13:18:47;11.20;;;10.10;;
4089;SDS011;2059;48.538;12.146;2023-02-28T13:24:00;10.47;;;9.37;;
4089;SDS011;2059;48.538;12.146;2023-02-28T13:29:04;10.93;;;9.83;;
4089;SDS011;2059;48.538;12.146;2023-02-28T13:34:29;10.90;;;9.80;;
4089;SDS011;2059;48.538;12.146;2023-02-28T13:39:45;12.23;;;10.67;;
4089;SDS011;2059;48.538;12.146;2023-02-28T13:50:30;12.43;;;10.60;;
4089;SDS011;2059;48.538;12.146;2023-02-28T13:55:35;12.90;;;10.93;;
4089;SDS011;2059;48.538;12.146;2023-02-28T14:00:46;11.77;;;10.57;;
4089;SDS011;2059;48.538;12.146;2023-02-28T14:06:09;11.63;;;10.00;;
4089;SDS011;2059;48.538;12.146;2023-02-28T14:11:27;11.07;;;9.97;;
4089;SDS011;2059;48.538;12.146;2023-02-28T14:16:38;11.57;;;10.37;;
4089;SDS011;2059;48.538;12.146;2023-02-28T14:21:50;11.13;;;10.03;;
4089;SDS011;2059;48.538;12.146;2023-02-28T14:27:20;11.17;;;9.87;;
4089;SDS011;2059;48.538;12.146;2023-02-28T14:32:32;13.53;;;11.30;;
4089;SDS011;2059;48.538;12.146;2023-02-28T14:37:38;14.10;;;12.10;;
4089;SDS011;2059;48.538;12.146;2023-02-28T14:42:46;11.60;;;10.20;;
4089;SDS011;2059;48.538;12.146;2023-02-28T14:47:49;12.17;;;10.73;;
4089;SDS011;2059;48.538;12.146;2023-02-28T14:52:54;12.57;;;11.27;;
4089;SDS011;2059;48.538;12.146;2023-02-28T14:57:56;13.00;;;11.63;;
4089;SDS011;2059;48.538;12.146;2023-02-28T15:03:01;14.27;;;11.13;;
4089;SDS011;2059;48.538;12.146;2023-02-28T15:08:20;13.43;;;11.40;;
4089;SDS011;2059;48.538;12.146;2023-02-28T15:13:22;11.90;;;10.50;;
4089;SDS011;2059;48.538;12.146;2023-02-28T15:18:28;13.43;;;11.77;;
4089;SDS011;2059;48.538;12.146;2023-02-28T15:23:35;12.90;;;11.60;;
4089;SDS011;2059;48.538;12.146;2023-02-28T15:28:38;13.90;;;12.07;;
4089;SDS011;2059;48.538;12.146;2023-02-28T15:33:47;15.80;;;12.70;;
4089;SDS011;2059;48.538;12.146;2023-02-28T15:38:55;15.20;;;11.80;;
4089;SDS011;2059;48.538;12.146;2023-02-28T15:49:19;13.90;;;11.30;;
4089;SDS011;2059;48.538;12.146;2023-02-28T15:54:24;14.20;;;12.47;;
4089;SDS011;2059;48.538;12.146;2023-02-28T15:59:29;17.17;;;11.97;;
4089;SDS011;2059;48.538;12.146;2023-02-28T16:04:32;18.90;;;12.40;;
4089;SDS011;2059;48.538;12.146;2023-02-28T16:09:35;14.50;;;12.10;;
4089;SDS011;2059;48.538;12.146;2023-02-28T16:14:37;14.23;;;11.73;;
4089;SDS011;2059;48.538;12.146;2023-02-28T16:19:39;14.47;;;13.03;;
4089;SDS011;2059;48.538;12.146;2023-02-28T16:24:42;15.60;;;12.67;;
4089;SDS011;2059;48.538;12.146;2023-02-28T16:29:44;15.60;;;12.77;;
4089;SDS011;2059;48.538;12.146;2023-02-28T16:34:47;15.50;;;11.90;;
4089;SDS011;2059;48.538;12.146;2023-02-28T16:39:50;15.80;;;12.20;;
4089;SDS011;2059;48.538;12.146;2023-02-28T16:44:52;15.30;;;12.60;;
4089;SDS011;2059;48.538;12.146;2023-02-28T16:49:54;15.43;;;12.80;;
4089;SDS011;2059;48.538;12.146;2023-02-28T16:54:57;16.20;;;12.30;;
4089;SDS011;2059;48.538;12.146;2023-02-28T17:00:00;17.47;;;12.07;;
4089;SDS011;2059;48.538;12.146;2023-02-28T17:05:02;16.87;;;12.50;;
4089;SDS011;2059;48.538;12.146;2023-02-28T17:10:11;18.73;;;12.47;;
4089;SDS011;2059;48.538;12.146;2023-02-28T17:15:17;16.10;;;13.30;;
4089;SDS011;2059;48.538;12.146;2023-02-28T17:20:21;16.47;;;14.37;;
4089;SDS011;2059;48.538;12.146;2023-02-28T17:25:24;14.80;;;12.10;;
4089;SDS011;2059;48.538;12.146;2023-02-28T17:30:27;15.47;;;13.30;;
4089;SDS011;2059;48.538;12.146;2023-02-28T17:35:29;17.27;;;14.17;;
4089;SDS011;2059;48.538;12.146;2023-02-28T17:40:32;17.63;;;13.77;;
4089;SDS011;2059;48.538;12.146;2023-02-28T17:45:34;22.80;;;18.30;;
4089;SDS011;2059;48.538;12.146;2023-02-28T17:50:36;15.50;;;13.80;;
4089;SDS011;2059;48.538;12.146;2023-02-28T17:55:39;16.80;;;13.50;;
4089;SDS011;2059;48.538;12.146;2023-02-28T18:00:41;18.80;;;13.83;;
4089;SDS011;2059;48.538;12.146;2023-02-28T18:05:43;17.10;;;13.70;;
4089;SDS011;2059;48.538;12.146;2023-02-28T18:10:46;20.23;;;14.10;;
4089;SDS011;2059;48.538;12.146;2023-02-28T18:15:48;16.77;;;12.53;;
4089;SDS011;2059;48.538;12.146;2023-02-28T18:20:50;19.90;;;13.40;;
4089;SDS011;2059;48.538;12.146;2023-02-28T18:25:54;15.80;;;12.90;;
4089;SDS011;2059;48.538;12.146;2023-02-28T18:30:56;14.57;;;12.90;;
4089;SDS011;2059;48.538;12.146;2023-02-28T18:35:58;17.63;;;12.70;;
4089;SDS011;2059;48.538;12.146;2023-02-28T18:41:02;17.50;;;13.37;;
4089;SDS011;2059;48.538;12.146;2023-02-28T18:46:06;18.00;;;13.53;;
4089;SDS011;2059;48.538;12.146;2023-02-28T18:51:10;20.57;;;14.47;;
4089;SDS011;2059;48.538;12.146;2023-02-28T18:56:15;16.30;;;14.27;;
4089;SDS011;2059;48.538;12.146;2023-02-28T19:01:19;17.77;;;13.90;;
4089;SDS011;2059;48.538;12.146;2023-02-28T19:06:23;14.63;;;12.47;;
4089;SDS011;2059;48.538;12.146;2023-02-28T19:11:27;18.70;;;12.90;;
4089;SDS011;2059;48.538;12.146;2023-02-28T19:16:29;23.50;;;14.57;;
4089;SDS011;2059;48.538;12.146;2023-02-28T19:21:31;16.87;;;12.87;;
4089;SDS011;2059;48.538;12.146;2023-02-28T19:26:36;17.20;;;14.23;;
4089;SDS011;2059;48.538;12.146;2023-02-28T19:31:39;16.63;;;14.20;;
4089;SDS011;2059;48.538;12.146;2023-02-28T19:36:40;20.00;;;13.57;;
4089;SDS011;2059;48.538;12.146;2023-02-28T19:41:44;15.43;;;13.07;;
4089;SDS011;2059;48.538;12.146;2023-02-28T19:46:45;18.50;;;13.57;;
4089;SDS011;2059;48.538;12.146;2023-02-28T19:51:47;16.80;;;13.50;;
4089;SDS011;2059;48.538;12.146;2023-02-28T19:56:51;16.43;;;13.10;;
4089;SDS011;2059;48.538;12.146;2023-02-28T20:01:56;15.97;;;12.77;;
4089;SDS011;2059;48.538;12.146;2023-02-28T20:06:58;19.97;;;13.70;;
4089;SDS011;2059;48.538;12.146;2023-02-28T20:12:01;18.60;;;14.30;;
4089;SDS011;2059;48.538;12.146;2023-02-28T20:17:03;18.73;;;13.20;;
4089;SDS011;2059;48.538;12.146;2023-02-28T20:22:05;19.80;;;15.03;;
4089;SDS011;2059;48.538;12.146;2023-02-28T20:27:08;18.23;;;14.63;;
4089;SDS011;2059;48.538;12.146;2023-02-28T20:32:10;18.63;;;13.10;;
4089;SDS011;2059;48.538;12.146;2023-02-28T20:37:12;16.20;;;13.20;;
4089;SDS011;2059;48.538;12.146;2023-02-28T20:42:16;18.10;;;14.20;;
4089;SDS011;2059;48.538;12.146;2023-02-28T20:47:17;15.77;;;13.57;;
4089;SDS011;2059;48.538;12.146;2023-02-28T20:52:19;17.63;;;14.07;;
4089;SDS011;2059;48.538;12.146;2023-02-28T20:57:22;18.50;;;13.20;;
4089;SDS011;2059;48.538;12.146;2023-02-28T21:02:24;16.07;;;12.73;;
4089;SDS011;2059;48.538;12.146;2023-02-28T21:07:27;18.23;;;14.03;;
4089;SDS011;2059;48.538;12.146;2023-02-28T21:12:30;17.80;;;14.83;;
4089;SDS011;2059;48.538;12.146;2023-02-28T21:17:32;16.73;;;13.30;;
4089;SDS011;2059;48.538;12.146;2023-02-28T21:22:34;19.27;;;14.10;;
4089;SDS011;2059;48.538;12.146;2023-02-28T21:27:37;18.77;;;14.23;;
4089;SDS011;2059;48.538;12.146;2023-02-28T21:32:39;15.93;;;13.80;;
4089;SDS011;2059;48.538;12.146;2023-02-28T21:37:41;17.17;;;14.03;;
4089;SDS011;2059;48.538;12.146;2023-02-28T21:42:45;16.93;;;14.20;;
4089;SDS011;2059;48.538;12.146;2023-02-28T21:47:46;16.20;;;13.47;;
4089;SDS011;2059;48.538;12.146;2023-02-28T21:52:48;18.13;;;14.00;;
4089;SDS011;2059;48.538;12.146;2023-02-28T21:57:51;17.60;;;14.00;;
4089;SDS011;2059;48.538;12.146;2023-02-28T22:02:53;18.30;;;13.33;;
4089;SDS011;2059;48.538;12.146;2023-02-28T22:07:55;17.30;;;13.97;;
4089;SDS011;2059;48.538;12.146;2023-02-28T22:12:58;17.10;;;13.63;;
4089;SDS011;2059;48.538;12.146;2023-02-28T22:18:00;15.57;;;13.40;;
4089;SDS011;2059;48.538;12.146;2023-02-28T22:23:02;17.30;;;13.50;;
4089;SDS011;2059;48.538;12.146;2023-02-28T22:28:05;15.77;;;12.93;;
4089;SDS011;2059;48.538;12.146;2023-02-28T22:33:07;15.90;;;13.20;;
4089;SDS011;2059;48.538;12.146;2023-02-28T22:38:09;17.87;;;14.13;;
4089;SDS011;2059;48.538;12.146;2023-02-28T22:43:12;18.00;;;14.07;;
4089;SDS011;2059;48.538;12.146;2023-02-28T22:48:14;17.33;;;14.07;;
4089;SDS011;2059;48.538;12.146;2023-02-28T22:53:16;18.97;;;14.80;;
4089;SDS011;2059;48.538;12.146;2023-02-28T22:58:19;17.73;;;13.97;;
4089;SDS011;2059;48.538;12.146;2023-02-28T23:03:21;20.13;;;14.00;;
4089;SDS011;2059;48.538;12.146;2023-02-28T23:08:24;20.20;;;15.03;;
4089;SDS011;2059;48.538;12.146;2023-02-28T23:13:27;19.77;;;15.20;;
4089;SDS011;2059;48.538;12.146;2023-02-28T23:18:29;19.03;;;14.40;;
4089;SDS011;2059;48.538;12.146;2023-02-28T23:23:31;20.67;;;14.80;;
4089;SDS011;2059;48.538;12.146;2023-02-28T23:28:35;16.90;;;14.67;;
4089;SDS011;2059;48.538;12.146;2023-02-28T23:33:37;19.90;;;14.63;;
4089;SDS011;2059;48.538;12.146;2023-02-28T23:38:39;19.77;;;16.00;;
4089;SDS011;2059;48.538;12.146;2023-02-28T23:43:44;26.43;;;20.30;;
4089;SDS011;2059;48.538;12.146;2023-02-28T23:48:46;26.00;;;19.00;;
4089;SDS011;2059;48.538;12.146;2023-02-28T23:53:49;24.30;;;18.63;;
4089;SDS011;2059;48.538;12.146;2023-02-28T23:58:53;24.20;;;18.07;;
